Terminal Aerodrome Forecast
Issued by NWS

Home | Current Version | Previous Version | Text Only | Print | Product List | Glossary On
Versions: 1 2 3 4 5 6 7 8 9 10 11 12 13 14 15 16 17 18
000
FTUS46 KLOX 221400 AAB
TAFLGB
TAF AMD
KLGB 221412Z 2214/2312 VRB03KT 3SM BR SCT004
     FM221600 VRB03KT P6SM SKC
     FM222100 29007KT P6SM SKC
     FM230300 VRB03KT P6SM SKC=

USA.gov is the U.S. government's official web portal to all federal, state and local government web resources and services.